createdAt,value
2018-12-01T00:00:30.639Z,7.86
2018-12-01T00:03:03.489Z,7.88
2018-12-01T00:05:39.870Z,7.75
2018-12-01T00:08:10.973Z,7.80
2018-12-01T00:10:41.626Z,7.81
2018-12-01T00:13:12.268Z,7.68
2018-12-01T00:15:43.930Z,7.57
2018-12-01T00:18:14.585Z,7.48
2018-12-01T00:20:45.230Z,7.49
2018-12-01T00:23:15.899Z,7.51
2018-12-01T00:25:46.589Z,7.49
2018-12-01T00:28:17.235Z,7.47
2018-12-01T00:30:47.914Z,7.39
2018-12-01T00:33:19.075Z,7.32
2018-12-01T00:35:49.720Z,7.33
2018-12-01T00:38:20.802Z,7.33
2018-12-01T00:40:51.506Z,7.36
2018-12-01T00:43:22.143Z,7.18
2018-12-01T00:45:52.822Z,7.14
2018-12-01T00:48:23.471Z,7.15
2018-12-01T00:50:54.190Z,7.08
2018-12-01T00:53:24.912Z,7.13
2018-12-01T00:55:55.961Z,7.04
2018-12-01T00:58:26.666Z,6.99
2018-12-01T01:00:57.482Z,7.03
2018-12-01T01:03:28.266Z,7.05
2018-12-01T01:05:59.036Z,7.07
2018-12-01T01:08:29.843Z,7.04
2018-12-01T01:11:05.594Z,7.01
2018-12-01T01:13:36.326Z,6.94
2018-12-01T01:16:09.122Z,7.06
2018-12-01T01:18:39.962Z,7.13
2018-12-01T01:21:10.765Z,7.23
2018-12-01T01:23:41.606Z,7.21
2018-12-01T01:26:12.770Z,7.28
2018-12-01T01:28:44.112Z,7.25
2018-12-01T01:31:15.034Z,7.29
2018-12-01T01:33:45.831Z,7.29
2018-12-01T01:36:16.649Z,7.28
2018-12-01T01:38:47.438Z,7.25
2018-12-01T01:41:18.222Z,7.30
2018-12-01T01:43:49.034Z,7.30
2018-12-01T01:46:19.830Z,7.31
2018-12-01T01:48:50.768Z,7.30
2018-12-01T01:51:21.549Z,7.36
2018-12-01T01:53:52.280Z,7.38
2018-12-01T01:56:23.066Z,7.32
2018-12-01T01:58:54.467Z,7.23
2018-12-01T02:01:25.168Z,7.16
2018-12-01T02:03:56.537Z,7.12
2018-12-01T02:06:27.839Z,7.09
2018-12-01T02:08:59.073Z,7.11
2018-12-01T02:11:29.778Z,7.09
2018-12-01T02:14:00.416Z,7.17
2018-12-01T02:16:34.608Z,7.05
2018-12-01T02:19:05.607Z,6.95
2018-12-01T02:21:36.448Z,6.59
2018-12-01T02:24:07.227Z,7.01
2018-12-01T02:26:38.591Z,6.90
2018-12-01T02:29:09.234Z,6.95
2018-12-01T02:31:39.931Z,6.88
2018-12-01T02:34:10.599Z,6.82
2018-12-01T02:36:41.250Z,7.01
2018-12-01T02:39:11.907Z,6.92
2018-12-01T02:41:42.588Z,6.97
2018-12-01T02:44:24.793Z,7.06
2018-12-01T02:47:06.268Z,7.07
2018-12-01T02:49:37.119Z,7.00
2018-12-01T02:52:08.158Z,6.91
2018-12-01T02:54:39.191Z,6.81
2018-12-01T02:57:09.871Z,6.88
2018-12-01T02:59:41.189Z,6.93
2018-12-01T03:02:11.860Z,6.82
2018-12-01T03:04:42.506Z,6.90
2018-12-01T03:07:13.131Z,6.78
2018-12-01T03:09:43.869Z,6.78
2018-12-01T03:12:15.915Z,6.65
2018-12-01T03:14:46.715Z,6.58
2018-12-01T03:17:17.835Z,6.52
2018-12-01T03:19:48.531Z,6.47
2018-12-01T03:22:20.022Z,6.47
2018-12-01T03:24:50.843Z,6.53
2018-12-01T03:27:21.517Z,6.51
2018-12-01T03:29:52.205Z,6.57
2018-12-01T03:32:22.870Z,6.50
2018-12-01T03:34:53.571Z,6.56
2018-12-01T03:37:24.806Z,6.55
2018-12-01T03:39:55.548Z,6.49
2018-12-01T03:42:26.182Z,6.52
2018-12-01T03:44:59.938Z,6.57
2018-12-01T03:47:30.702Z,6.53
2018-12-01T03:50:05.193Z,6.53
2018-12-01T03:52:35.875Z,6.59
2018-12-01T03:55:12.639Z,6.66
2018-12-01T03:57:43.866Z,6.65
2018-12-01T04:00:14.597Z,6.61
2018-12-01T04:02:45.240Z,6.64
2018-12-01T04:05:15.839Z,6.79
2018-12-01T04:07:46.572Z,6.71
2018-12-01T04:10:17.219Z,6.79
2018-12-01T04:12:48.179Z,6.83
2018-12-01T04:15:19.686Z,6.95
2018-12-01T04:17:50.359Z,6.99
2018-12-01T04:20:21.082Z,7.05
2018-12-01T04:22:51.709Z,7.08
2018-12-01T04:25:22.478Z,7.14
2018-12-01T04:27:53.080Z,7.12
2018-12-01T04:30:25.178Z,7.18
2018-12-01T04:32:55.923Z,7.25
2018-12-01T04:35:26.687Z,7.24
2018-12-01T04:37:57.590Z,7.07
2018-12-01T04:40:28.299Z,6.97
2018-12-01T04:42:59.477Z,6.94
2018-12-01T04:45:30.152Z,6.91
2018-12-01T04:48:00.847Z,6.95
2018-12-01T04:50:33.070Z,7.07
2018-12-01T04:53:05.364Z,7.13
2018-12-01T04:55:36.033Z,7.15
2018-12-01T04:58:07.070Z,7.22
2018-12-01T05:00:37.753Z,7.16
2018-12-01T05:03:08.393Z,7.05
2018-12-01T05:05:39.053Z,6.96
2018-12-01T05:08:09.718Z,6.96
2018-12-01T05:10:41.264Z,6.96
2018-12-01T05:13:11.956Z,6.86
2018-12-01T05:15:42.598Z,6.96
2018-12-01T05:18:13.319Z,7.01
2018-12-01T05:20:43.959Z,7.03
2018-12-01T05:23:14.666Z,6.91
2018-12-01T05:25:45.355Z,6.74
2018-12-01T05:28:15.957Z,6.90
2018-12-01T05:30:46.732Z,6.91
2018-12-01T05:33:17.356Z,6.96
2018-12-01T05:35:48.060Z,7.07
2018-12-01T05:38:19.297Z,7.10
2018-12-01T05:40:49.971Z,7.03
2018-12-01T05:43:20.631Z,7.07
2018-12-01T05:45:51.330Z,7.12
2018-12-01T05:48:23.327Z,7.28
2018-12-01T05:50:53.975Z,7.27
2018-12-01T05:53:24.648Z,7.30
2018-12-01T05:55:55.259Z,7.38
2018-12-01T05:58:25.998Z,7.42
2018-12-01T06:00:59.596Z,7.38
2018-12-01T06:03:30.583Z,7.43
2018-12-01T06:06:03.095Z,7.38
2018-12-01T06:08:33.692Z,7.33
2018-12-01T06:11:05.936Z,7.37
2018-12-01T06:13:36.542Z,7.29
2018-12-01T06:16:07.510Z,7.25
2018-12-01T06:18:38.157Z,7.31
2018-12-01T06:21:08.835Z,7.29
2018-12-01T06:23:40.188Z,7.26
2018-12-01T06:26:10.876Z,7.20
2018-12-01T06:28:42.131Z,7.09
2018-12-01T06:31:12.832Z,6.87
2018-12-01T06:33:44.420Z,6.94
2018-12-01T06:36:15.704Z,6.91
2018-12-01T06:38:47.027Z,6.85
2018-12-01T06:41:18.231Z,6.75
2018-12-01T06:43:48.974Z,6.81
2018-12-01T06:46:19.606Z,6.75
2018-12-01T06:48:50.352Z,6.67
2018-12-01T06:51:20.982Z,6.69
2018-12-01T06:53:51.642Z,6.61
2018-12-01T06:56:22.518Z,6.56
2018-12-01T06:58:53.210Z,6.56
2018-12-01T07:01:23.851Z,6.62
2018-12-01T07:03:54.530Z,6.69
2018-12-01T07:06:25.382Z,6.63
2018-12-01T07:08:56.121Z,6.72
2018-12-01T07:11:26.748Z,6.83
2018-12-01T07:13:57.450Z,6.82
2018-12-01T07:16:28.135Z,6.84
2018-12-01T07:19:12.974Z,6.98
2018-12-01T07:21:43.637Z,7.03
2018-12-01T07:24:14.370Z,7.00
2018-12-01T07:26:45.055Z,7.08
2018-12-01T07:29:15.717Z,7.04
2018-12-01T07:31:46.498Z,7.10
2018-12-01T07:34:17.202Z,7.03
2018-12-01T07:36:47.892Z,7.10
2018-12-01T07:39:18.508Z,7.09
2018-12-01T07:41:49.202Z,7.10
2018-12-01T07:44:19.906Z,7.07
2018-12-01T07:46:50.565Z,7.07
2018-12-01T07:49:21.719Z,7.06
2018-12-01T07:51:52.333Z,7.06
2018-12-01T07:54:22.939Z,7.19
2018-12-01T07:56:53.613Z,7.23
2018-12-01T07:59:24.991Z,7.39
2018-12-01T08:01:56.291Z,7.38
2018-12-01T08:04:26.975Z,7.43
2018-12-01T08:06:57.611Z,7.62
2018-12-01T08:09:31.074Z,7.49
2018-12-01T08:12:03.680Z,7.79
2018-12-01T08:14:34.308Z,7.90
2018-12-01T08:17:05.983Z,7.85
2018-12-01T08:19:36.633Z,8.03
2018-12-01T08:22:07.547Z,8.13
2018-12-01T08:24:38.395Z,8.15
2018-12-01T08:27:09.488Z,8.25
2018-12-01T08:29:40.134Z,8.38
2018-12-01T08:32:10.815Z,8.48
2018-12-01T08:34:41.556Z,8.39
2018-12-01T08:37:12.241Z,8.41
2018-12-01T08:39:42.873Z,8.37
2018-12-01T08:42:13.717Z,8.36
2018-12-01T08:44:44.359Z,8.32
2018-12-01T08:47:15.141Z,8.39
2018-12-01T08:49:45.783Z,8.43
2018-12-01T08:52:16.398Z,8.50
2018-12-01T08:54:47.031Z,8.49
2018-12-01T08:57:17.710Z,8.52
2018-12-01T08:59:49.363Z,8.52
2018-12-01T09:02:20.093Z,8.62
2018-12-01T09:04:50.789Z,8.71
2018-12-01T09:07:21.467Z,8.68
2018-12-01T09:09:52.094Z,8.77
2018-12-01T09:12:22.779Z,8.80
2018-12-01T09:14:53.439Z,8.86
2018-12-01T09:17:24.142Z,9.05
2018-12-01T09:19:54.856Z,9.26
2018-12-01T09:22:25.479Z,9.50
2018-12-01T09:24:57.008Z,9.55
2018-12-01T09:27:27.955Z,9.43
2018-12-01T09:29:58.578Z,9.60
2018-12-01T09:32:29.203Z,9.50
2018-12-01T09:34:59.941Z,9.36
2018-12-01T09:37:30.526Z,9.34
2018-12-01T09:40:02.740Z,9.28
2018-12-01T09:42:33.373Z,9.30
2018-12-01T09:45:04.458Z,9.47
2018-12-01T09:47:35.094Z,9.58
2018-12-01T09:50:08.139Z,9.69
2018-12-01T09:52:38.832Z,9.81
2018-12-01T09:55:13.600Z,9.77
2018-12-01T09:57:44.904Z,9.79
2018-12-01T10:00:16.704Z,9.67
2018-12-01T10:02:47.903Z,9.90
2018-12-01T10:05:19.859Z,10.10
2018-12-01T10:07:50.589Z,10.17
2018-12-01T10:10:22.299Z,10.23
2018-12-01T10:12:54.850Z,10.30
2018-12-01T10:15:29.047Z,10.32
2018-12-01T10:17:59.751Z,10.37
2018-12-01T10:20:35.283Z,10.11
2018-12-01T10:23:11.755Z,9.93
2018-12-01T10:25:42.464Z,9.86
2018-12-01T10:28:13.163Z,9.88
2018-12-01T10:30:43.820Z,9.70
2018-12-01T10:33:14.583Z,9.85
2018-12-01T10:35:45.233Z,9.91
2018-12-01T10:38:17.282Z,10.10
2018-12-01T10:40:47.964Z,10.05
2018-12-01T10:43:18.663Z,10.08
2018-12-01T10:45:49.328Z,10.33
2018-12-01T10:48:19.997Z,10.41
2018-12-01T10:50:50.642Z,10.62
2018-12-01T10:53:21.285Z,10.77
2018-12-01T10:55:52.006Z,10.86
2018-12-01T10:58:22.727Z,11.18
2018-12-01T11:00:58.391Z,11.54
2018-12-01T11:03:35.323Z,11.66
2018-12-01T11:06:13.332Z,12.13
2018-12-01T11:08:43.996Z,13.13
2018-12-01T11:11:14.799Z,13.25
2018-12-01T11:13:45.479Z,13.42
2018-12-01T11:16:16.167Z,13.17
2018-12-01T11:18:47.003Z,13.10
2018-12-01T11:21:17.658Z,12.80
2018-12-01T11:23:49.305Z,12.36
2018-12-01T11:26:20.002Z,12.65
2018-12-01T11:28:50.815Z,12.97
2018-12-01T11:31:21.499Z,13.48
2018-12-01T11:33:52.278Z,13.96
2018-12-01T11:36:23.175Z,14.72
2018-12-01T11:38:54.035Z,15.17
2018-12-01T11:41:24.718Z,15.88
2018-12-01T11:43:55.417Z,15.93
2018-12-01T11:46:26.409Z,16.21
2018-12-01T11:48:57.148Z,16.50
2018-12-01T11:51:27.830Z,16.87
2018-12-01T11:53:58.551Z,18.00
2018-12-01T11:56:29.239Z,18.31
2018-12-01T11:59:04.189Z,18.14
2018-12-01T12:01:35.729Z,17.51
2018-12-01T12:04:07.032Z,17.56
2018-12-01T12:06:37.835Z,17.58
2018-12-01T12:09:09.485Z,18.16
2018-12-01T12:11:40.119Z,18.12
2018-12-01T12:14:11.077Z,18.21
2018-12-01T12:16:41.720Z,18.59
2018-12-01T12:19:12.420Z,18.77
2018-12-01T12:21:43.721Z,18.78
2018-12-01T12:24:14.384Z,18.87
2018-12-01T12:26:45.074Z,18.25
2018-12-01T12:29:15.831Z,18.18
2018-12-01T12:31:46.524Z,17.80
2018-12-01T12:34:17.191Z,17.10
2018-12-01T12:36:47.902Z,16.73
2018-12-01T12:39:18.566Z,16.24
2018-12-01T12:41:49.244Z,15.84
2018-12-01T12:44:20.132Z,15.98
2018-12-01T12:46:50.785Z,15.63
2018-12-01T12:49:21.495Z,15.61
2018-12-01T12:51:52.218Z,15.77
2018-12-01T12:54:23.039Z,15.99
2018-12-01T12:56:53.699Z,16.16
2018-12-01T12:59:24.368Z,16.14
2018-12-01T13:01:55.107Z,15.91
2018-12-01T13:04:25.771Z,15.86
2018-12-01T13:06:56.405Z,15.65
2018-12-01T13:09:27.097Z,15.70
2018-12-01T13:11:57.812Z,15.37
2018-12-01T13:14:28.522Z,15.45
2018-12-01T13:16:59.200Z,15.20
2018-12-01T13:19:29.842Z,15.17
2018-12-01T13:22:00.598Z,15.05
2018-12-01T13:24:34.935Z,14.88
2018-12-01T13:27:05.884Z,15.18
2018-12-01T13:29:36.583Z,15.64
2018-12-01T13:32:08.420Z,15.68
2018-12-01T13:34:39.195Z,15.75
2018-12-01T13:37:10.015Z,15.72
2018-12-01T13:39:40.748Z,15.68
2018-12-01T13:42:11.484Z,15.86
2018-12-01T13:44:42.244Z,15.74
2018-12-01T13:47:13.060Z,15.88
2018-12-01T13:49:43.785Z,15.82
2018-12-01T13:52:15.408Z,15.65
2018-12-01T13:54:46.079Z,15.53
2018-12-01T13:57:16.800Z,15.58
2018-12-01T13:59:47.451Z,15.57
2018-12-01T14:02:18.107Z,15.71
2018-12-01T14:04:49.492Z,16.32
2018-12-01T14:07:20.162Z,16.36
2018-12-01T14:09:50.852Z,16.27
2018-12-01T14:12:21.572Z,16.14
2018-12-01T14:14:52.230Z,15.93
2018-12-01T14:17:23.622Z,15.77
2018-12-01T14:19:54.400Z,15.68
2018-12-01T14:22:25.034Z,15.54
2018-12-01T14:24:55.667Z,15.60
2018-12-01T14:27:26.339Z,15.60
2018-12-01T14:29:57.029Z,15.42
2018-12-01T14:32:34.711Z,15.43
2018-12-01T14:35:36.921Z,15.20
2018-12-01T14:38:12.690Z,15.12
2018-12-01T14:40:47.480Z,15.07
2018-12-01T14:43:18.157Z,15.13
2018-12-01T14:45:49.998Z,15.27
2018-12-01T14:48:20.697Z,15.27
2018-12-01T14:50:52.354Z,15.16
2018-12-01T14:53:23.151Z,15.14
2018-12-01T14:55:53.827Z,15.34
2018-12-01T14:58:24.425Z,15.34
2018-12-01T15:00:55.127Z,15.32
2018-12-01T15:03:26.034Z,15.44
2018-12-01T15:05:56.528Z,15.63
2018-12-01T15:08:27.229Z,15.99
2018-12-01T15:10:57.924Z,16.03
2018-12-01T15:13:29.357Z,15.98
2018-12-01T15:16:00.091Z,15.93
2018-12-01T15:18:35.218Z,15.69
2018-12-01T15:21:08.695Z,15.58
2018-12-01T15:23:39.358Z,15.34
2018-12-01T15:26:11.072Z,15.06
2018-12-01T15:28:41.734Z,14.99
2018-12-01T15:31:12.438Z,14.96
2018-12-01T15:33:43.090Z,14.87
2018-12-01T15:36:13.837Z,14.84
2018-12-01T15:38:45.066Z,14.82
2018-12-01T15:41:17.227Z,14.80
2018-12-01T15:43:47.907Z,14.89
2018-12-01T15:46:18.687Z,14.88
2018-12-01T15:48:49.477Z,14.98
2018-12-01T15:51:20.120Z,14.96
2018-12-01T15:53:51.455Z,14.86
2018-12-01T15:56:22.066Z,14.85
2018-12-01T15:58:52.718Z,14.86
2018-12-01T16:01:24.064Z,14.82
2018-12-01T16:03:54.948Z,14.76
2018-12-01T16:06:25.665Z,14.79
2018-12-01T16:08:56.430Z,14.65
2018-12-01T16:11:27.224Z,14.70
2018-12-01T16:13:58.174Z,14.62
2018-12-01T16:16:28.991Z,14.58
2018-12-01T16:18:59.696Z,14.48
2018-12-01T16:21:30.437Z,14.45
2018-12-01T16:24:05.639Z,14.45
2018-12-01T16:26:36.222Z,14.42
2018-12-01T16:29:07.263Z,14.45
2018-12-01T16:31:37.922Z,14.47
2018-12-01T16:34:08.591Z,14.39
2018-12-01T16:36:39.327Z,14.33
2018-12-01T16:39:11.468Z,14.29
2018-12-01T16:41:42.264Z,14.24
2018-12-01T16:44:13.243Z,14.13
2018-12-01T16:46:44.363Z,14.12
2018-12-01T16:49:15.420Z,14.01
2018-12-01T16:51:46.226Z,13.92
2018-12-01T16:54:16.920Z,13.89
2018-12-01T16:56:47.555Z,13.88
2018-12-01T16:59:18.336Z,13.85
2018-12-01T17:01:48.960Z,13.74
2018-12-01T17:04:19.612Z,13.78
2018-12-01T17:06:51.132Z,13.76
2018-12-01T17:09:21.867Z,13.62
2018-12-01T17:11:52.568Z,13.53
2018-12-01T17:14:23.866Z,13.46
2018-12-01T17:16:55.214Z,13.37
2018-12-01T17:19:26.619Z,13.32
2018-12-01T17:21:58.085Z,13.24
2018-12-01T17:24:39.380Z,13.20
2018-12-01T17:27:10.256Z,13.18
2018-12-01T17:29:42.414Z,13.13
2018-12-01T17:32:14.518Z,13.13
2018-12-01T17:34:45.967Z,13.11
2018-12-01T17:37:24.853Z,13.06
2018-12-01T17:39:55.619Z,13.05
2018-12-01T17:42:26.263Z,13.07
2018-12-01T17:44:57.926Z,13.00
2018-12-01T17:47:28.589Z,13.03
2018-12-01T17:50:00.754Z,13.07
2018-12-01T17:52:36.207Z,13.09
2018-12-01T17:55:09.615Z,13.07
2018-12-01T17:57:40.333Z,13.11
2018-12-01T18:00:16.018Z,13.12
2018-12-01T18:02:45.483Z,13.12
2018-12-01T18:05:17.889Z,13.11
2018-12-01T18:07:48.579Z,13.08
2018-12-01T18:10:19.353Z,13.09
2018-12-01T18:12:50.049Z,13.07
2018-12-01T18:15:21.413Z,13.18
2018-12-01T18:17:52.158Z,13.15
2018-12-01T18:20:23.542Z,13.11
2018-12-01T18:23:03.792Z,13.10
2018-12-01T18:25:44.344Z,13.09
2018-12-01T18:28:18.118Z,13.09
2018-12-01T18:30:48.858Z,13.11
2018-12-01T18:33:28.633Z,13.06
2018-12-01T18:36:00.963Z,13.04
2018-12-01T18:38:32.153Z,12.99
2018-12-01T18:41:05.954Z,13.00
2018-12-01T18:43:36.732Z,13.00
2018-12-01T18:46:09.997Z,12.99
2018-12-01T18:48:40.679Z,12.93
2018-12-01T18:51:11.540Z,12.97
2018-12-01T18:53:42.696Z,12.91
2018-12-01T18:56:20.099Z,12.96
2018-12-01T18:59:05.427Z,12.88
2018-12-01T19:02:29.479Z,12.86
2018-12-01T19:05:00.235Z,12.88
2018-12-01T19:07:31.886Z,12.87
2018-12-01T19:10:04.219Z,12.91
2018-12-01T19:12:35.048Z,12.89
2018-12-01T19:15:06.803Z,12.81
2018-12-01T19:17:37.540Z,12.78
2018-12-01T19:20:11.855Z,12.78
2018-12-01T19:22:42.752Z,12.79
2018-12-01T19:25:15.936Z,12.79
2018-12-01T19:27:46.661Z,12.75
2018-12-01T19:30:18.513Z,12.83
2018-12-01T19:32:52.587Z,12.87
2018-12-01T19:35:23.377Z,12.79
2018-12-01T19:37:55.054Z,12.75
2018-12-01T19:40:33.555Z,12.61
2018-12-01T19:43:05.266Z,12.53
2018-12-01T19:45:35.989Z,12.42
2018-12-01T19:48:08.876Z,12.38
2018-12-01T19:50:40.422Z,12.40
2018-12-01T19:53:13.213Z,12.38
2018-12-01T19:55:44.644Z,12.41
2018-12-01T19:58:17.838Z,12.41
2018-12-01T20:00:51.700Z,12.44
2018-12-01T20:03:23.635Z,12.56
2018-12-01T20:05:54.810Z,12.49
2018-12-01T20:08:26.262Z,12.46
2018-12-01T20:10:59.287Z,12.46
2018-12-01T20:13:31.720Z,12.47
2018-12-01T20:16:21.371Z,12.44
2018-12-01T20:18:52.491Z,12.43
2018-12-01T20:21:29.860Z,12.41
2018-12-01T20:24:00.482Z,12.36
2018-12-01T20:26:31.840Z,12.42
2018-12-01T20:29:05.210Z,12.40
2018-12-01T20:31:35.915Z,12.38
2018-12-01T20:34:07.384Z,12.36
2018-12-01T20:36:40.747Z,12.19
2018-12-01T20:39:24.928Z,12.17
2018-12-01T20:41:55.684Z,12.12
2018-12-01T20:44:27.345Z,12.03
2018-12-01T20:46:57.967Z,11.93
2018-12-01T20:49:28.633Z,11.90
2018-12-01T20:51:59.310Z,11.89
2018-12-01T20:54:37.366Z,11.77
2018-12-01T20:57:14.801Z,11.72
2018-12-01T20:59:46.252Z,11.62
2018-12-01T21:02:17.378Z,11.56
2018-12-01T21:04:48.254Z,11.51
2018-12-01T21:07:18.998Z,11.54
2018-12-01T21:09:49.839Z,11.51
2018-12-01T21:12:21.115Z,11.51
2018-12-01T21:14:52.710Z,11.52
2018-12-01T21:17:23.338Z,11.60
2018-12-01T21:19:53.988Z,11.61
2018-12-01T21:22:24.663Z,11.70
2018-12-01T21:24:55.363Z,11.76
2018-12-01T21:27:27.376Z,11.85
2018-12-01T21:29:58.147Z,11.90
2018-12-01T21:32:28.779Z,11.98
2018-12-01T21:34:59.449Z,12.19
2018-12-01T21:37:30.151Z,12.13
2018-12-01T21:40:00.838Z,12.04
2018-12-01T21:42:31.558Z,12.04
2018-12-01T21:45:02.551Z,12.12
2018-12-01T21:47:33.243Z,12.03
2018-12-01T21:50:04.139Z,11.96
2018-12-01T21:52:34.855Z,11.87
2018-12-01T21:55:07.151Z,11.89
2018-12-01T21:57:37.875Z,11.89
2018-12-01T22:00:20.347Z,11.88
2018-12-01T22:02:52.967Z,11.83
2018-12-01T22:05:25.792Z,11.78
2018-12-01T22:07:56.454Z,11.75
2018-12-01T22:10:27.067Z,11.73
2018-12-01T22:12:59.102Z,11.73
2018-12-01T22:15:29.866Z,11.68
2018-12-01T22:18:00.508Z,11.69
2018-12-01T22:20:33.256Z,11.70
2018-12-01T22:23:03.958Z,11.78
2018-12-01T22:25:34.694Z,11.78
2018-12-01T22:28:09.550Z,11.69
2018-12-01T22:30:40.306Z,11.69
2018-12-01T22:33:13.754Z,11.72
2018-12-01T22:35:46.146Z,11.76
2018-12-01T22:38:16.831Z,11.69
2018-12-01T22:40:47.923Z,11.67
2018-12-01T22:43:18.654Z,11.68
2018-12-01T22:45:49.555Z,11.69
2018-12-01T22:48:23.759Z,11.75
2018-12-01T22:50:54.708Z,11.63
2018-12-01T22:53:25.439Z,11.70
2018-12-01T22:55:56.106Z,11.74
2018-12-01T22:58:27.752Z,11.72
2018-12-01T23:00:59.870Z,11.74
2018-12-01T23:03:32.888Z,11.69
2018-12-01T23:06:07.161Z,11.72
2018-12-01T23:08:38.111Z,11.75
2018-12-01T23:11:09.767Z,11.74
2018-12-01T23:13:40.530Z,11.75
2018-12-01T23:16:11.250Z,11.78
2018-12-01T23:18:41.918Z,11.84
2018-12-01T23:21:12.548Z,11.76
2018-12-01T23:23:43.435Z,11.74
2018-12-01T23:26:14.087Z,11.69
2018-12-01T23:28:44.923Z,11.64
2018-12-01T23:31:15.598Z,11.60
2018-12-01T23:33:46.269Z,11.57
2018-12-01T23:36:16.934Z,11.62
2018-12-01T23:38:48.949Z,11.60
2018-12-01T23:41:26.314Z,11.64
2018-12-01T23:43:56.932Z,11.70
2018-12-01T23:46:29.716Z,11.64
2018-12-01T23:49:00.450Z,11.74
2018-12-01T23:51:32.598Z,11.73
2018-12-01T23:54:05.360Z,11.75
2018-12-01T23:56:36.010Z,11.80
2018-12-01T23:59:06.683Z,11.83
